createdAt,value
2023-05-22T00:01:02.198Z,97675.00
2023-05-22T00:03:38.756Z,97665.00
2023-05-22T00:06:15.030Z,97670.00
2023-05-22T00:08:50.976Z,97666.00
2023-05-22T00:11:27.128Z,97668.00
2023-05-22T00:14:03.014Z,97672.00
2023-05-22T00:16:39.758Z,97662.00
2023-05-22T00:19:17.185Z,97662.00
2023-05-22T00:21:54.288Z,97663.00
2023-05-22T00:24:30.232Z,97666.00
2023-05-22T00:27:06.229Z,97661.00
2023-05-22T00:29:42.494Z,97670.00
2023-05-22T00:32:18.406Z,97663.00
2023-05-22T00:34:54.517Z,97665.00
2023-05-22T00:37:30.461Z,97663.00
2023-05-22T00:40:08.536Z,97655.00
2023-05-22T00:42:44.763Z,97660.00
2023-05-22T00:45:23.452Z,97655.00
2023-05-22T00:47:59.397Z,97659.00
2023-05-22T00:50:35.420Z,97655.00
2023-05-22T00:53:11.691Z,97652.00
2023-05-22T00:55:48.312Z,97654.00
2023-05-22T00:58:27.048Z,97653.00
2023-05-22T01:01:03.173Z,97659.00
2023-05-22T01:03:45.272Z,97662.00
2023-05-22T01:06:24.336Z,97660.00
2023-05-22T01:09:00.302Z,97659.00
2023-05-22T01:12:11.254Z,97658.00
2023-05-22T01:15:22.587Z,97665.00
2023-05-22T01:18:20.737Z,97665.00
2023-05-22T01:21:18.336Z,97671.00
2023-05-22T01:24:43.050Z,97667.00
2023-05-22T01:28:16.560Z,97674.00
2023-05-22T01:31:11.479Z,97672.00
2023-05-22T01:33:54.934Z,97665.00
2023-05-22T01:36:37.328Z,97677.00
2023-05-22T01:39:14.879Z,97665.00
2023-05-22T01:41:50.971Z,97664.00
2023-05-22T01:44:26.881Z,97670.00
2023-05-22T01:47:05.828Z,97671.00
2023-05-22T01:49:42.767Z,97677.00
2023-05-22T01:52:35.974Z,97671.00
2023-05-22T01:55:21.211Z,97673.00
2023-05-22T01:58:12.942Z,97682.00
2023-05-22T02:00:51.593Z,97681.00
2023-05-22T02:03:33.787Z,97677.00
2023-05-22T02:06:13.979Z,97688.00
2023-05-22T02:08:51.406Z,97691.00
2023-05-22T02:11:29.324Z,97682.00
2023-05-22T02:14:06.072Z,97685.00
2023-05-22T02:16:42.383Z,97688.00
2023-05-22T02:19:18.665Z,97684.00
2023-05-22T02:21:55.926Z,97676.00
2023-05-22T02:24:32.754Z,97684.00
2023-05-22T02:27:09.597Z,97677.00
2023-05-22T02:29:45.560Z,97680.00
2023-05-22T02:32:21.509Z,97676.00
2023-05-22T02:34:58.590Z,97672.00
2023-05-22T02:37:35.129Z,97671.00
2023-05-22T02:40:11.707Z,97665.00
2023-05-22T02:42:48.440Z,97669.00
2023-05-22T02:45:25.457Z,97673.00
2023-05-22T02:48:03.547Z,97673.00
2023-05-22T02:50:41.100Z,97668.00
2023-05-22T02:53:17.290Z,97668.00
2023-05-22T02:55:53.207Z,97671.00
2023-05-22T02:58:29.152Z,97670.00
2023-05-22T03:01:09.058Z,97662.00
2023-05-22T03:03:45.176Z,97670.00
2023-05-22T03:06:21.965Z,97678.00
2023-05-22T03:08:57.986Z,97683.00
2023-05-22T03:11:34.329Z,97686.00
2023-05-22T03:14:10.306Z,97683.00
2023-05-22T03:16:46.490Z,97684.00
2023-05-22T03:19:23.339Z,97686.00
2023-05-22T03:21:59.316Z,97693.00
2023-05-22T03:24:35.317Z,97694.00
2023-05-22T03:27:16.625Z,97693.00
2023-05-22T03:29:52.984Z,97694.00
2023-05-22T03:32:30.567Z,97702.00
2023-05-22T03:35:07.305Z,97698.00
2023-05-22T03:37:43.292Z,97698.00
2023-05-22T03:40:19.277Z,97703.00
2023-05-22T03:42:55.369Z,97698.00
2023-05-22T03:45:31.995Z,97695.00
2023-05-22T03:48:10.678Z,97697.00
2023-05-22T03:50:47.011Z,97701.00
2023-05-22T03:53:23.151Z,97701.00
2023-05-22T03:55:59.364Z,97707.00
2023-05-22T03:58:35.535Z,97703.00
2023-05-22T04:01:13.718Z,97703.00
2023-05-22T04:03:49.771Z,97708.00
2023-05-22T04:06:26.636Z,97709.00
2023-05-22T04:09:02.805Z,97701.00
2023-05-22T04:11:39.965Z,97712.00
2023-05-22T04:14:16.114Z,97707.00
2023-05-22T04:16:52.152Z,97715.00
2023-05-22T04:19:30.352Z,97710.00
2023-05-22T04:22:07.010Z,97715.00
2023-05-22T04:24:43.441Z,97707.00
2023-05-22T04:27:22.609Z,97709.00
2023-05-22T04:30:02.360Z,97715.00
2023-05-22T04:32:38.477Z,97714.00
2023-05-22T04:35:18.539Z,97716.00
2023-05-22T04:37:55.938Z,97720.00
2023-05-22T04:40:33.764Z,97728.00
2023-05-22T04:43:10.006Z,97719.00
2023-05-22T04:45:46.365Z,97730.00
2023-05-22T04:48:23.080Z,97723.00
2023-05-22T04:50:58.976Z,97731.00
2023-05-22T04:53:35.387Z,97722.00
2023-05-22T04:56:13.113Z,97723.00
2023-05-22T04:58:50.994Z,97725.00
2023-05-22T05:01:27.792Z,97728.00
2023-05-22T05:04:04.581Z,97731.00
2023-05-22T05:06:40.530Z,97726.00
2023-05-22T05:09:16.450Z,97735.00
2023-05-22T05:11:53.102Z,97736.00
2023-05-22T05:14:29.171Z,97735.00
2023-05-22T05:17:05.367Z,97733.00
2023-05-22T05:19:42.452Z,97727.00
2023-05-22T05:22:18.607Z,97728.00
2023-05-22T05:24:54.576Z,97727.00
2023-05-22T05:27:31.073Z,97728.00
2023-05-22T05:30:08.676Z,97733.00
2023-05-22T05:32:58.257Z,97727.00
2023-05-22T05:35:43.169Z,97728.00
2023-05-22T05:38:21.156Z,97724.00
2023-05-22T05:40:57.134Z,97727.00
2023-05-22T05:43:33.548Z,97727.00
2023-05-22T05:46:14.221Z,97726.00
2023-05-22T05:48:50.745Z,97730.00
2023-05-22T05:51:26.782Z,97732.00
2023-05-22T05:54:03.041Z,97726.00
2023-05-22T05:56:39.209Z,97728.00
2023-05-22T05:59:15.397Z,97736.00
2023-05-22T06:02:09.984Z,97732.00
2023-05-22T06:04:48.444Z,97743.00
2023-05-22T06:07:28.533Z,97740.00
2023-05-22T06:10:06.733Z,97741.00
2023-05-22T06:12:50.957Z,97744.00
2023-05-22T06:15:27.075Z,97754.00
2023-05-22T06:18:03.937Z,97750.00
2023-05-22T06:20:40.316Z,97747.00
2023-05-22T06:23:16.674Z,97749.00
2023-05-22T06:25:52.624Z,97749.00
2023-05-22T06:28:29.082Z,97751.00
2023-05-22T06:31:05.634Z,97743.00
2023-05-22T06:33:43.412Z,97740.00
2023-05-22T06:36:19.686Z,97741.00
2023-05-22T06:38:55.754Z,97742.00
2023-05-22T06:41:57.896Z,97743.00
2023-05-22T06:44:33.930Z,97747.00
2023-05-22T06:47:13.688Z,97743.00
2023-05-22T06:49:50.837Z,97752.00
2023-05-22T06:52:26.839Z,97750.00
2023-05-22T06:55:05.675Z,97753.00
2023-05-22T06:57:52.424Z,97750.00
2023-05-22T07:00:29.469Z,97740.00
2023-05-22T07:03:13.932Z,97745.00
2023-05-22T07:05:59.984Z,97750.00
2023-05-22T07:08:36.516Z,97755.00
2023-05-22T07:11:13.070Z,97749.00
2023-05-22T07:13:49.050Z,97748.00
2023-05-22T07:16:26.029Z,97744.00
2023-05-22T07:19:03.296Z,97755.00
2023-05-22T07:21:40.486Z,97751.00
2023-05-22T07:24:17.465Z,97766.00
2023-05-22T07:26:53.757Z,97757.00
2023-05-22T07:29:30.003Z,97760.00
2023-05-22T07:32:08.509Z,97751.00
2023-05-22T07:34:45.781Z,97761.00
2023-05-22T07:37:22.268Z,97758.00
2023-05-22T07:39:59.069Z,97756.00
2023-05-22T07:42:35.383Z,97759.00
2023-05-22T07:45:13.165Z,97747.00
2023-05-22T07:47:49.305Z,97766.00
2023-05-22T07:50:30.430Z,97758.00
2023-05-22T07:53:06.545Z,97755.00
2023-05-22T07:55:46.240Z,97756.00
2023-05-22T07:58:24.275Z,97748.00
2023-05-22T08:01:01.866Z,97745.00
2023-05-22T08:03:38.108Z,97757.00
2023-05-22T08:06:16.177Z,97751.00
2023-05-22T08:08:54.662Z,97753.00
2023-05-22T08:11:30.809Z,97755.00
2023-05-22T08:14:07.638Z,97752.00
2023-05-22T08:16:43.769Z,97747.00
2023-05-22T08:19:19.815Z,97753.00
2023-05-22T08:21:58.232Z,97749.00
2023-05-22T08:24:34.242Z,97755.00
2023-05-22T08:27:10.406Z,97751.00
2023-05-22T08:29:46.450Z,97747.00
2023-05-22T08:32:22.416Z,97751.00
2023-05-22T08:34:59.405Z,97743.00
2023-05-22T08:37:35.894Z,97745.00
2023-05-22T08:40:13.050Z,97746.00
2023-05-22T08:42:51.530Z,97747.00
2023-05-22T08:45:29.962Z,97743.00
2023-05-22T08:48:07.087Z,97747.00
2023-05-22T08:50:43.705Z,97737.00
2023-05-22T08:53:23.948Z,97745.00
2023-05-22T08:56:00.032Z,97739.00
2023-05-22T08:58:37.694Z,97742.00
2023-05-22T09:01:14.524Z,97745.00
2023-05-22T09:03:51.689Z,97749.00
2023-05-22T09:06:31.868Z,97736.00
2023-05-22T09:09:07.936Z,97748.00
2023-05-22T09:11:44.262Z,97745.00
2023-05-22T09:14:20.266Z,97743.00
2023-05-22T09:16:56.303Z,97736.00
2023-05-22T09:19:32.571Z,97742.00
2023-05-22T09:22:08.655Z,97739.00
2023-05-22T09:24:47.236Z,97733.00
2023-05-22T09:27:23.538Z,97735.00
2023-05-22T09:29:59.482Z,97737.00
2023-05-22T09:32:36.026Z,97744.00
2023-05-22T09:35:12.468Z,97740.00
2023-05-22T09:37:50.978Z,97743.00
2023-05-22T09:40:29.296Z,97733.00
2023-05-22T09:43:09.503Z,97733.00
2023-05-22T09:45:45.789Z,97730.00
2023-05-22T09:48:21.780Z,97736.00
2023-05-22T09:51:01.039Z,97732.00
2023-05-22T09:53:39.802Z,97726.00
2023-05-22T09:56:27.209Z,97730.00
2023-05-22T09:59:13.900Z,97746.00
2023-05-22T10:01:50.862Z,97733.00
2023-05-22T10:04:32.706Z,97735.00
2023-05-22T10:07:11.605Z,97728.00
2023-05-22T10:09:59.821Z,97738.00
2023-05-22T10:12:46.547Z,97741.00
2023-05-22T10:15:23.301Z,97737.00
2023-05-22T10:17:59.614Z,97729.00
2023-05-22T10:20:36.123Z,97733.00
2023-05-22T10:23:19.275Z,97730.00
2023-05-22T10:25:55.968Z,97734.00
2023-05-22T10:28:42.121Z,97735.00
2023-05-22T10:31:32.164Z,97732.00
2023-05-22T10:34:38.200Z,97727.00
2023-05-22T10:37:43.607Z,97728.00
2023-05-22T10:40:28.973Z,97722.00
2023-05-22T10:43:05.859Z,97720.00
2023-05-22T10:45:45.507Z,97716.00
2023-05-22T10:48:23.228Z,97721.00
2023-05-22T10:51:00.048Z,97725.00
2023-05-22T10:53:36.926Z,97713.00
2023-05-22T10:56:14.956Z,97706.00
2023-05-22T10:59:05.254Z,97709.00
2023-05-22T11:01:41.397Z,97707.00
2023-05-22T11:04:30.714Z,97704.00
2023-05-22T11:07:08.607Z,97705.00
2023-05-22T11:09:48.750Z,97697.00
2023-05-22T11:12:28.317Z,97694.00
2023-05-22T11:15:11.792Z,97690.00
2023-05-22T11:17:51.844Z,97696.00
2023-05-22T11:20:30.622Z,97697.00
2023-05-22T11:23:08.207Z,97690.00
2023-05-22T11:25:44.251Z,97686.00
2023-05-22T11:28:20.457Z,97681.00
2023-05-22T11:30:57.458Z,97687.00
2023-05-22T11:33:33.606Z,97681.00
2023-05-22T11:36:09.687Z,97675.00
2023-05-22T11:38:45.705Z,97677.00
2023-05-22T11:41:21.638Z,97677.00
2023-05-22T11:43:57.525Z,97675.00
2023-05-22T11:46:33.689Z,97670.00
2023-05-22T11:49:13.196Z,97666.00
2023-05-22T11:51:49.787Z,97665.00
2023-05-22T11:54:25.981Z,97656.00
2023-05-22T11:57:08.079Z,97658.00
2023-05-22T11:59:47.939Z,97658.00
2023-05-22T12:02:23.972Z,97662.00
2023-05-22T12:04:59.993Z,97653.00
2023-05-22T12:07:36.059Z,97655.00
2023-05-22T12:10:14.615Z,97659.00
2023-05-22T12:12:50.649Z,97653.00
2023-05-22T12:15:27.135Z,97647.00
2023-05-22T12:18:03.088Z,97642.00
2023-05-22T12:20:46.247Z,97635.00
2023-05-22T12:23:26.598Z,97644.00
2023-05-22T12:26:08.398Z,97638.00
2023-05-22T12:28:44.696Z,97639.00
2023-05-22T12:31:22.699Z,97635.00
2023-05-22T12:33:58.608Z,97636.00
2023-05-22T12:36:39.461Z,97632.00
2023-05-22T12:39:19.314Z,97637.00
2023-05-22T12:41:55.466Z,97629.00
2023-05-22T12:44:31.488Z,97633.00
2023-05-22T12:47:07.537Z,97649.00
2023-05-22T12:49:43.498Z,97647.00
2023-05-22T12:52:19.437Z,97649.00
2023-05-22T12:54:55.344Z,97653.00
2023-05-22T12:57:31.292Z,97655.00
2023-05-22T13:00:08.150Z,97650.00
2023-05-22T13:02:44.147Z,97658.00
2023-05-22T13:05:20.821Z,97650.00
2023-05-22T13:07:56.758Z,97648.00
2023-05-22T13:10:32.681Z,97638.00
2023-05-22T13:13:08.653Z,97638.00
2023-05-22T13:15:45.394Z,97628.00
2023-05-22T13:18:22.358Z,97629.00
2023-05-22T13:21:00.023Z,97622.00
2023-05-22T13:23:35.927Z,97621.00
2023-05-22T13:26:11.960Z,97624.00
2023-05-22T13:28:47.871Z,97629.00
2023-05-22T13:31:23.766Z,97624.00
2023-05-22T13:34:01.603Z,97620.00
2023-05-22T13:36:38.965Z,97628.00
2023-05-22T13:39:14.962Z,97628.00
2023-05-22T13:41:53.038Z,97631.00
2023-05-22T13:44:29.314Z,97635.00
2023-05-22T13:47:05.365Z,97648.00
2023-05-22T13:49:41.473Z,97645.00
2023-05-22T13:52:17.608Z,97648.00
2023-05-22T13:54:53.582Z,97636.00
2023-05-22T13:57:29.545Z,97639.00
2023-05-22T14:00:06.855Z,97630.00
2023-05-22T14:02:43.246Z,97623.00
2023-05-22T14:05:19.383Z,97630.00
2023-05-22T14:07:56.744Z,97635.00
2023-05-22T14:10:34.360Z,97627.00
2023-05-22T14:13:10.248Z,97625.00
2023-05-22T14:15:49.181Z,97619.00
2023-05-22T14:18:25.211Z,97617.00
2023-05-22T14:21:02.710Z,97618.00
2023-05-22T14:23:41.174Z,97619.00
2023-05-22T14:26:17.560Z,97617.00
2023-05-22T14:28:54.052Z,97615.00
2023-05-22T14:31:31.198Z,97614.00
2023-05-22T14:34:07.284Z,97612.00
2023-05-22T14:36:44.329Z,97605.00
2023-05-22T14:39:20.338Z,97609.00
2023-05-22T14:41:56.784Z,97610.00
2023-05-22T14:44:32.816Z,97614.00
2023-05-22T14:47:08.838Z,97614.00
2023-05-22T14:49:44.946Z,97621.00
2023-05-22T14:52:21.100Z,97625.00
2023-05-22T14:54:57.059Z,97628.00
2023-05-22T14:57:34.544Z,97633.00
2023-05-22T15:00:13.399Z,97632.00
2023-05-22T15:02:49.419Z,97627.00
2023-05-22T15:05:26.959Z,97640.00
2023-05-22T15:08:03.122Z,97648.00
2023-05-22T15:10:39.195Z,97648.00
2023-05-22T15:13:15.418Z,97635.00
2023-05-22T15:15:51.480Z,97631.00
2023-05-22T15:18:27.654Z,97635.00
2023-05-22T15:21:03.799Z,97641.00
2023-05-22T15:23:39.913Z,97649.00
2023-05-22T15:26:16.076Z,97637.00
2023-05-22T15:28:52.286Z,97634.00
2023-05-22T15:31:31.727Z,97634.00
2023-05-22T15:34:15.856Z,97632.00
2023-05-22T15:36:52.253Z,97624.00
2023-05-22T15:39:28.353Z,97615.00
2023-05-22T15:42:06.775Z,97611.00
2023-05-22T15:44:43.261Z,97608.00
2023-05-22T15:47:19.389Z,97600.00
2023-05-22T15:49:55.427Z,97617.00
2023-05-22T15:52:33.552Z,97633.00
2023-05-22T15:55:09.831Z,97635.00
2023-05-22T15:57:45.942Z,97635.00
2023-05-22T16:00:22.008Z,97635.00
2023-05-22T16:02:58.319Z,97639.00
2023-05-22T16:05:39.455Z,97640.00
2023-05-22T16:08:16.605Z,97635.00
2023-05-22T16:10:54.421Z,97640.00
2023-05-22T16:13:30.746Z,97631.00
2023-05-22T16:16:07.593Z,97638.00
2023-05-22T16:18:44.106Z,97636.00
2023-05-22T16:21:20.560Z,97638.00
2023-05-22T16:23:57.616Z,97647.00
2023-05-22T16:26:33.907Z,97648.00
2023-05-22T16:29:10.055Z,97645.00
2023-05-22T16:31:46.557Z,97644.00
2023-05-22T16:34:22.777Z,97644.00
2023-05-22T16:36:58.815Z,97643.00
2023-05-22T16:39:34.873Z,97649.00
2023-05-22T16:42:11.065Z,97665.00
2023-05-22T16:44:47.285Z,97669.00
2023-05-22T16:47:23.545Z,97676.00
2023-05-22T16:50:03.676Z,97675.00
2023-05-22T16:52:41.026Z,97683.00
2023-05-22T16:55:17.376Z,97687.00
2023-05-22T16:57:54.094Z,97693.00
2023-05-22T17:00:30.652Z,97698.00
2023-05-22T17:03:08.247Z,97689.00
2023-05-22T17:05:47.342Z,97687.00
2023-05-22T17:08:23.478Z,97693.00
2023-05-22T17:10:59.579Z,97694.00
2023-05-22T17:13:36.565Z,97700.00
2023-05-22T17:16:12.548Z,97696.00
2023-05-22T17:18:48.805Z,97700.00
2023-05-22T17:21:24.852Z,97700.00
2023-05-22T17:24:00.935Z,97682.00
2023-05-22T17:26:37.405Z,97694.00
2023-05-22T17:29:14.423Z,97688.00
2023-05-22T17:31:50.457Z,97685.00
2023-05-22T17:34:26.413Z,97684.00
2023-05-22T17:37:02.346Z,97674.00
2023-05-22T17:39:39.082Z,97688.00
2023-05-22T17:42:15.195Z,97687.00
2023-05-22T17:44:51.173Z,97692.00
2023-05-22T17:47:27.256Z,97694.00
2023-05-22T17:50:03.394Z,97700.00
2023-05-22T17:52:42.265Z,97681.00
2023-05-22T17:55:18.879Z,97676.00
2023-05-22T17:57:56.360Z,97708.00
2023-05-22T18:00:32.273Z,97696.00
2023-05-22T18:03:08.401Z,97689.00
2023-05-22T18:05:45.207Z,97691.00
2023-05-22T18:08:21.614Z,97698.00
2023-05-22T18:10:58.951Z,97705.00
2023-05-22T18:13:34.909Z,97705.00
2023-05-22T18:16:11.544Z,97702.00
2023-05-22T18:18:47.628Z,97697.00
2023-05-22T18:21:24.397Z,97708.00
2023-05-22T18:24:00.422Z,97718.00
2023-05-22T18:26:36.334Z,97712.00
2023-05-22T18:29:12.282Z,97720.00
2023-05-22T18:31:48.399Z,97715.00
2023-05-22T18:34:24.384Z,97712.00
2023-05-22T18:37:00.412Z,97714.00
2023-05-22T18:39:37.340Z,97715.00
2023-05-22T18:42:14.232Z,97725.00
2023-05-22T18:44:50.771Z,97726.00
2023-05-22T18:47:26.896Z,97729.00
2023-05-22T18:50:05.365Z,97719.00
2023-05-22T18:52:41.956Z,97720.00
2023-05-22T18:55:17.919Z,97728.00
2023-05-22T18:57:53.894Z,97730.00
2023-05-22T19:00:30.762Z,97735.00
2023-05-22T19:03:06.817Z,97739.00
2023-05-22T19:05:43.894Z,97735.00
2023-05-22T19:08:20.326Z,97740.00
2023-05-22T19:10:59.895Z,97735.00
2023-05-22T19:13:36.485Z,97731.00
2023-05-22T19:16:14.025Z,97731.00
2023-05-22T19:18:50.276Z,97732.00
2023-05-22T19:21:26.697Z,97737.00
2023-05-22T19:24:04.091Z,97747.00
2023-05-22T19:26:40.234Z,97753.00
2023-05-22T19:29:16.231Z,97751.00
2023-05-22T19:31:52.332Z,97751.00
2023-05-22T19:34:28.317Z,97751.00
2023-05-22T19:37:04.576Z,97766.00
2023-05-22T19:39:40.676Z,97774.00
2023-05-22T19:42:16.701Z,97777.00
2023-05-22T19:44:52.748Z,97785.00
2023-05-22T19:47:28.843Z,97787.00
2023-05-22T19:50:05.942Z,97791.00
2023-05-22T19:52:42.038Z,97776.00
2023-05-22T19:55:18.047Z,97780.00
2023-05-22T19:57:54.606Z,97786.00
2023-05-22T20:00:31.750Z,97785.00
2023-05-22T20:03:07.854Z,97788.00
2023-05-22T20:05:43.852Z,97779.00
2023-05-22T20:08:21.656Z,97780.00
2023-05-22T20:10:57.630Z,97784.00
2023-05-22T20:13:33.934Z,97789.00
2023-05-22T20:16:12.662Z,97792.00
2023-05-22T20:18:48.901Z,97791.00
2023-05-22T20:21:24.882Z,97796.00
2023-05-22T20:24:05.284Z,97796.00
2023-05-22T20:26:41.778Z,97795.00
2023-05-22T20:29:18.388Z,97798.00
2023-05-22T20:31:56.555Z,97804.00
2023-05-22T20:34:33.232Z,97809.00
2023-05-22T20:37:10.141Z,97809.00
2023-05-22T20:39:46.361Z,97801.00
2023-05-22T20:42:22.853Z,97807.00
2023-05-22T20:44:58.779Z,97810.00
2023-05-22T20:47:36.170Z,97811.00
2023-05-22T20:50:12.172Z,97812.00
2023-05-22T20:52:48.113Z,97820.00
2023-05-22T20:55:25.504Z,97823.00
2023-05-22T20:58:01.701Z,97829.00
2023-05-22T21:00:37.694Z,97842.00
2023-05-22T21:03:13.645Z,97841.00
2023-05-22T21:05:49.588Z,97831.00
2023-05-22T21:08:25.528Z,97841.00
2023-05-22T21:11:01.452Z,97834.00
2023-05-22T21:13:37.374Z,97821.00
2023-05-22T21:16:13.246Z,97822.00
2023-05-22T21:18:49.221Z,97822.00
2023-05-22T21:21:25.139Z,97825.00
2023-05-22T21:24:01.111Z,97834.00
2023-05-22T21:26:37.604Z,97829.00
2023-05-22T21:29:13.663Z,97837.00
2023-05-22T21:31:49.721Z,97838.00
2023-05-22T21:34:25.715Z,97840.00
2023-05-22T21:37:01.654Z,97838.00
2023-05-22T21:39:37.580Z,97844.00
2023-05-22T21:42:16.310Z,97842.00
2023-05-22T21:44:52.255Z,97842.00
2023-05-22T21:47:28.172Z,97844.00
2023-05-22T21:50:04.505Z,97840.00
2023-05-22T21:52:40.404Z,97844.00
2023-05-22T21:55:16.422Z,97843.00
2023-05-22T21:57:52.295Z,97844.00
2023-05-22T22:00:29.553Z,97843.00
2023-05-22T22:03:05.880Z,97838.00
2023-05-22T22:05:41.995Z,97851.00
2023-05-22T22:08:17.885Z,97851.00
2023-05-22T22:10:54.364Z,97855.00
2023-05-22T22:13:30.476Z,97856.00
2023-05-22T22:16:06.513Z,97859.00
2023-05-22T22:18:43.821Z,97861.00
2023-05-22T22:22:16.390Z,97860.00
2023-05-22T22:24:52.474Z,97858.00
2023-05-22T22:27:28.426Z,97870.00
2023-05-22T22:30:04.988Z,97867.00
2023-05-22T22:32:41.034Z,97868.00
2023-05-22T22:35:16.969Z,97856.00
2023-05-22T22:37:52.915Z,97867.00
2023-05-22T22:40:28.798Z,97867.00
2023-05-22T22:43:04.846Z,97862.00
2023-05-22T22:45:41.084Z,97862.00
2023-05-22T22:48:17.340Z,97863.00
2023-05-22T22:50:53.500Z,97859.00
2023-05-22T22:53:29.388Z,97864.00
2023-05-22T22:56:05.552Z,97860.00
2023-05-22T22:58:41.453Z,97867.00
2023-05-22T23:01:17.532Z,97869.00
2023-05-22T23:03:53.546Z,97871.00
2023-05-22T23:06:29.764Z,97871.00
2023-05-22T23:09:05.682Z,97874.00
2023-05-22T23:11:41.575Z,97869.00
2023-05-22T23:14:17.834Z,97875.00
2023-05-22T23:16:53.875Z,97867.00
2023-05-22T23:19:29.822Z,97865.00
2023-05-22T23:22:05.977Z,97863.00
2023-05-22T23:24:41.902Z,97868.00
2023-05-22T23:27:17.818Z,97870.00
2023-05-22T23:29:53.774Z,97867.00
2023-05-22T23:32:29.722Z,97866.00
2023-05-22T23:35:06.112Z,97879.00
2023-05-22T23:37:42.034Z,97876.00
2023-05-22T23:40:17.958Z,97881.00
2023-05-22T23:42:53.852Z,97889.00
2023-05-22T23:45:29.801Z,97891.00
2023-05-22T23:48:05.788Z,97891.00
2023-05-22T23:50:41.933Z,97889.00
2023-05-22T23:53:17.806Z,97898.00
2023-05-22T23:55:53.756Z,97887.00
2023-05-22T23:58:30.217Z,97883.00
